Time;durP1;ratioP1;P1;durP2;ratioP2;P2;SDS_P1;SDS_P2;PMS_P1;PMS_P2;Temp;Humidity;BMP_temperature;BMP_pressure;BME280_temperature;BME280_humidity;BME280_pressure;Samples;Min_cycle;Max_cycle;Signal;HPM_P1;HPM_P2
2022/10/18 00:01:28;;;;;;;64.03;19.53;;;;;;;16.77;100.00;102522.66;2614865;36;20022;-54
2022/10/18 00:03:59;;;;;;;61.20;18.90;;;;;;;16.81;100.00;102515.94;2616352;36;20046;-57
2022/10/18 00:06:27;;;;;;;97.05;20.50;;;;;;;16.64;100.00;102524.72;2616419;36;20405;-56
2022/10/18 00:08:56;;;;;;;34.35;19.33;;;;;;;16.66;100.00;102524.59;2616457;36;20031;-56
2022/10/18 00:11:24;;;;;;;33.67;18.17;;;;;;;16.77;100.00;102522.66;2614907;36;20555;-53
2022/10/18 00:13:52;;;;;;;91.37;21.43;;;;;;;16.94;100.00;102523.03;2615053;36;21230;-53
2022/10/18 00:16:20;;;;;;;54.97;19.73;;;;;;;16.71;100.00;102517.75;2615969;36;20382;-55
2022/10/18 00:18:49;;;;;;;31.30;17.08;;;;;;;16.72;100.00;102502.28;2616675;36;20443;-55
2022/10/18 00:21:23;;;;;;;29.20;17.33;;;;;;;16.86;100.00;102503.75;2615145;36;20125;-57
2022/10/18 00:23:52;;;;;;;30.33;18.48;;;;;;;16.88;100.00;102508.13;2615869;36;20034;-55
2022/10/18 00:26:28;;;;;;;70.85;19.30;;;;;;;16.77;100.00;102510.91;2615647;36;20027;-53
2022/10/18 00:28:59;;;;;;;42.58;17.38;;;;;;;16.69;100.00;102510.72;2615991;36;20022;-54
2022/10/18 00:31:30;;;;;;;25.60;16.55;;;;;;;16.73;100.00;102515.75;2614861;36;20611;-54
2022/10/18 00:34:00;;;;;;;40.13;17.83;;;;;;;16.64;100.00;102517.44;2616611;36;20042;-55
2022/10/18 00:36:33;;;;;;;48.35;16.77;;;;;;;16.64;100.00;102505.69;2616004;31;20083;-55
2022/10/18 00:39:02;;;;;;;46.58;16.60;;;;;;;16.49;100.00;102501.59;2615810;31;20061;-55
2022/10/18 00:41:32;;;;;;;25.42;15.80;;;;;;;16.54;100.00;102508.34;2613908;31;21060;-57
2022/10/18 00:44:03;;;;;;;40.13;16.92;;;;;;;16.60;100.00;102513.25;2615633;36;20041;-55
2022/10/18 00:46:34;;;;;;;24.67;15.60;;;;;;;16.59;100.00;102518.81;2614952;31;20035;-57
2022/10/18 00:49:04;;;;;;;40.08;16.20;;;;;;;16.50;100.00;102519.63;2616027;36;20444;-55
2022/10/18 00:51:41;;;;;;;21.23;13.35;;;;;;;16.33;100.00;102516.53;2615063;36;20045;-57
2022/10/18 00:54:09;;;;;;;57.22;15.60;;;;;;;16.25;100.00;102511.78;2614285;36;20038;-55
2022/10/18 00:56:38;;;;;;;46.35;16.00;;;;;;;16.33;100.00;102518.38;2616144;36;20042;-57
2022/10/18 00:59:07;;;;;;;40.58;15.88;;;;;;;16.26;100.00;102518.91;2616183;36;20027;-55
2022/10/18 01:01:35;;;;;;;23.77;15.32;;;;;;;16.36;100.00;102512.72;2615835;36;20043;-56
2022/10/18 01:04:04;;;;;;;19.17;13.10;;;;;;;16.27;100.00;102514.38;2615277;36;20038;-56
2022/10/18 01:06:32;;;;;;;20.30;13.95;;;;;;;16.26;100.00;102518.06;2616437;36;20038;-53
2022/10/18 01:09:12;;;;;;;51.92;15.55;;;;;;;16.32;100.00;102522.97;2616259;36;20435;-55
2022/10/18 01:11:57;;;;;;;19.63;12.20;;;;;;;16.22;100.00;102522.88;2616227;36;20027;-55
2022/10/18 01:14:37;;;;;;;42.65;14.77;;;;;;;16.22;100.00;102517.47;2614396;36;20600;-56
2022/10/18 01:17:13;;;;;;;25.25;13.20;;;;;;;16.26;100.00;102512.63;2614730;36;20045;-53
2022/10/18 01:20:17;;;;;;;25.60;13.02;;;;;;;16.19;100.00;102519.59;2616201;36;20046;-54
2022/10/18 01:22:50;;;;;;;44.40;14.27;;;;;;;16.09;100.00;102519.50;2616042;36;20428;-53
2022/10/18 01:25:34;;;;;;;35.10;14.40;;;;;;;16.30;100.00;102524.97;2614551;36;20038;-53
2022/10/18 01:28:14;;;;;;;55.28;15.30;;;;;;;16.26;100.00;102528.94;2615822;36;20038;-56
2022/10/18 01:30:51;;;;;;;53.25;14.85;;;;;;;16.15;100.00;102532.59;2616347;36;20763;-53
2022/10/18 01:33:28;;;;;;;25.00;13.82;;;;;;;16.17;100.00;102533.31;2617092;36;20441;-53
2022/10/18 01:36:02;;;;;;;44.58;13.90;;;;;;;16.22;100.00;102541.06;2616283;36;20022;-54
2022/10/18 01:38:32;;;;;;;27.70;13.02;;;;;;;16.21;100.00;102537.50;2617171;36;20034;-52
2022/10/18 01:41:03;;;;;;;51.45;15.45;;;;;;;16.16;100.00;102545.16;2616230;36;20343;-50
2022/10/18 01:43:35;;;;;;;31.83;13.70;;;;;;;16.08;100.00;102543.09;2617234;36;20435;-50
2022/10/18 01:46:06;;;;;;;18.67;11.90;;;;;;;15.96;100.00;102537.84;2615896;36;20038;-53
2022/10/18 01:48:39;;;;;;;20.65;13.30;;;;;;;16.02;100.00;102545.47;2616602;36;20052;-53
2022/10/18 01:51:07;;;;;;;20.67;14.00;;;;;;;16.01;100.00;102541.91;2616702;31;20151;-55
2022/10/18 01:53:36;;;;;;;30.70;13.77;;;;;;;16.06;100.00;102550.53;2616483;36;20034;-55
2022/10/18 01:56:22;;;;;;;49.70;14.52;;;;;;;16.00;100.00;102550.19;2615606;36;20034;-55
2022/10/18 01:59:07;;;;;;;56.90;17.02;;;;;;;16.10;100.00;102551.13;2616355;36;20027;-57
2022/10/18 02:01:48;;;;;;;20.38;12.25;;;;;;;16.11;100.00;102548.28;2616409;36;20407;-51
2022/10/18 02:04:28;;;;;;;34.70;14.02;;;;;;;16.14;100.00;102546.31;2616217;36;20401;-51
2022/10/18 02:07:16;;;;;;;19.80;13.30;;;;;;;16.20;100.00;102546.63;2615611;36;20026;-54
2022/10/18 02:09:50;;;;;;;21.35;12.43;;;;;;;16.13;100.00;102541.84;2616557;36;20042;-52
2022/10/18 02:12:20;;;;;;;26.13;12.68;;;;;;;16.10;100.00;102537.53;2616047;36;20053;-52
2022/10/18 02:14:49;;;;;;;20.70;13.65;;;;;;;16.23;100.00;102534.63;2617021;31;20050;-53
2022/10/18 02:17:22;;;;;;;;;;;;;;;16.28;100.00;102538.69;2616062;36;20486;-51
2022/10/18 02:19:53;;;;;;;17.77;12.65;;;;;;;16.33;100.00;102535.56;2617579;31;19950;-54
2022/10/18 02:22:23;;;;;;;16.67;12.80;;;;;;;16.34;100.00;102544.56;2616374;36;20037;-55
2022/10/18 02:24:56;;;;;;;35.50;12.80;;;;;;;16.24;100.00;102541.81;2616341;36;20057;-54
2022/10/18 02:27:24;;;;;;;15.30;11.70;;;;;;;16.27;100.00;102541.53;2616348;36;20035;-53
2022/10/18 02:29:54;;;;;;;18.67;11.27;;;;;;;16.20;100.00;102537.63;2615862;36;20049;-53
2022/10/18 02:32:28;;;;;;;;;;;;;;;16.20;100.00;102543.06;2615803;31;20066;-53
2022/10/18 02:35:02;;;;;;;15.38;11.25;;;;;;;16.10;100.00;102538.38;2616964;36;19950;-54
2022/10/18 02:37:34;;;;;;;32.22;11.23;;;;;;;15.93;100.00;102534.41;2616209;36;20394;-55
2022/10/18 02:40:03;;;;;;;17.23;10.85;;;;;;;15.95;100.00;102545.16;2617535;31;20030;-53
2022/10/18 02:42:36;;;;;;;21.23;11.32;;;;;;;15.96;100.00;102538.72;2614927;36;20038;-51
2022/10/18 02:45:05;;;;;;;17.10;11.75;;;;;;;15.93;100.00;102542.56;2615579;36;20046;-53
2022/10/18 02:47:36;;;;;;;16.67;11.77;;;;;;;16.02;100.00;102535.50;2616782;36;20035;-53
2022/10/18 02:50:04;;;;;;;38.42;12.73;;;;;;;15.94;100.00;102532.56;2616411;36;20030;-51
2022/10/18 02:52:33;;;;;;;19.33;11.48;;;;;;;15.94;100.00;102540.69;2616941;36;20409;-51
2022/10/18 02:55:01;;;;;;;16.03;10.57;;;;;;;15.87;100.00;102539.50;2615982;36;20038;-51
2022/10/18 02:57:29;;;;;;;28.42;10.85;;;;;;;15.82;100.00;102536.31;2617076;36;20039;-53
2022/10/18 02:59:58;;;;;;;25.20;11.80;;;;;;;15.76;100.00;102533.06;2616196;36;20428;-55
2022/10/18 03:02:37;;;;;;;20.92;11.55;;;;;;;15.58;100.00;102532.78;2616361;31;20050;-53
2022/10/18 03:05:06;;;;;;;19.17;11.65;;;;;;;15.58;100.00;102535.50;2615927;36;20053;-55
2022/10/18 03:07:34;;;;;;;16.48;11.32;;;;;;;15.61;100.00;102534.38;2616770;31;20034;-49
2022/10/18 03:10:02;;;;;;;19.35;11.20;;;;;;;15.63;100.00;102543.25;2616758;31;20042;-50
2022/10/18 03:12:30;;;;;;;16.33;10.63;;;;;;;15.64;100.00;102544.97;2616200;31;20038;-54
2022/10/18 03:14:59;;;;;;;23.23;11.52;;;;;;;15.52;100.00;102546.88;2615039;36;20054;-51
2022/10/18 03:17:27;;;;;;;17.45;11.27;;;;;;;15.43;100.00;102542.22;2615865;36;20026;-53
2022/10/18 03:19:58;;;;;;;15.77;11.67;;;;;;;15.54;100.00;102546.75;2616215;36;20022;-53
2022/10/18 03:22:26;;;;;;;15.35;10.98;;;;;;;15.46;100.00;102547.38;2615389;36;20578;-52
2022/10/18 03:24:55;;;;;;;18.92;11.73;;;;;;;15.35;100.00;102541.97;2616645;36;20034;-55
2022/10/18 03:27:23;;;;;;;17.40;10.77;;;;;;;15.33;100.00;102539.38;2616129;36;20061;-52
2022/10/18 03:29:51;;;;;;;13.88;10.48;;;;;;;15.27;100.00;102548.03;2615848;36;20027;-53
2022/10/18 03:32:20;;;;;;;15.30;10.27;;;;;;;15.37;100.00;102546.28;2616417;36;20042;-53
2022/10/18 03:34:48;;;;;;;11.73;8.67;;;;;;;15.25;100.00;102544.56;2616658;36;20041;-53
2022/10/18 03:37:19;;;;;;;20.57;10.77;;;;;;;15.15;100.00;102539.03;2616226;36;20284;-54
2022/10/18 03:39:47;;;;;;;16.02;10.68;;;;;;;15.29;100.00;102546.03;2616637;36;20543;-52
2022/10/18 03:42:15;;;;;;;14.80;10.57;;;;;;;15.30;100.00;102545.06;2615785;31;20423;-55
2022/10/18 03:44:44;;;;;;;26.83;11.10;;;;;;;15.15;100.00;102549.00;2616901;36;20023;-50
2022/10/18 03:47:12;;;;;;;16.08;11.15;;;;;;;15.22;100.00;102552.94;2614900;36;20035;-51
2022/10/18 03:49:40;;;;;;;16.40;11.13;;;;;;;15.32;100.00;102553.94;2616010;36;20023;-56
2022/10/18 03:52:09;;;;;;;21.75;11.40;;;;;;;15.23;100.00;102558.25;2616143;36;20096;-54
2022/10/18 03:54:40;;;;;;;14.63;11.05;;;;;;;15.27;100.00;102560.72;2615314;36;20038;-55
2022/10/18 03:57:08;;;;;;;26.00;11.20;;;;;;;15.13;100.00;102561.84;2616970;36;20480;-51
2022/10/18 03:59:36;;;;;;;18.23;10.43;;;;;;;15.07;100.00;102555.06;2615889;36;20035;-54
2022/10/18 04:02:05;;;;;;;28.17;11.30;;;;;;;15.06;100.00;102561.47;2616079;36;20038;-53
2022/10/18 04:04:33;;;;;;;15.90;9.63;;;;;;;15.06;100.00;102550.63;2616168;36;20053;-54
2022/10/18 04:07:01;;;;;;;15.35;10.88;;;;;;;15.07;100.00;102546.94;2616614;36;20038;-53
2022/10/18 04:09:29;;;;;;;15.07;10.80;;;;;;;15.04;100.00;102550.75;2616028;36;20034;-54
2022/10/18 04:12:00;;;;;;;32.50;11.95;;;;;;;14.98;100.00;102548.53;2615829;36;20045;-53
2022/10/18 04:14:29;;;;;;;15.40;9.57;;;;;;;14.92;100.00;102554.47;2615716;36;20034;-54
2022/10/18 04:17:03;;;;;;;12.77;9.20;;;;;;;14.85;100.00;102540.53;2615414;36;20026;-52
2022/10/18 04:19:32;;;;;;;12.90;9.35;;;;;;;14.78;100.00;102539.31;2616357;31;20039;-55
2022/10/18 04:22:00;;;;;;;40.30;10.97;;;;;;;14.77;100.00;102543.00;2616461;36;20536;-52
2022/10/18 04:24:28;;;;;;;16.17;10.25;;;;;;;14.77;100.00;102544.84;2616322;36;20283;-51
2022/10/18 04:26:57;;;;;;;30.05;11.10;;;;;;;14.71;100.00;102551.63;2615865;36;20033;-51
2022/10/18 04:29:28;;;;;;;45.47;11.70;;;;;;;14.63;100.00;102552.22;2616061;36;20487;-53
2022/10/18 04:31:56;;;;;;;14.45;9.35;;;;;;;14.61;100.00;102556.91;2615421;36;20034;-52
2022/10/18 04:34:24;;;;;;;14.17;9.60;;;;;;;14.63;100.00;102565.75;2614867;36;20061;-54
2022/10/18 04:36:53;;;;;;;19.30;9.43;;;;;;;14.64;100.00;102555.81;2616976;31;20034;-56
2022/10/18 04:39:21;;;;;;;18.25;9.88;;;;;;;14.65;100.00;102552.97;2615064;36;20045;-52
2022/10/18 04:41:49;;;;;;;10.73;8.83;;;;;;;14.60;100.00;102544.28;2616159;36;20042;-49
2022/10/18 04:44:18;;;;;;;12.98;9.43;;;;;;;14.65;100.00;102539.41;2615906;36;20035;-55
2022/10/18 04:46:49;;;;;;;10.97;8.40;;;;;;;14.62;100.00;102539.66;2616077;36;20048;-55
2022/10/18 04:49:17;;;;;;;12.65;9.68;;;;;;;14.58;100.00;102542.72;2616628;36;20058;-51
2022/10/18 04:51:45;;;;;;;13.70;8.20;;;;;;;14.54;100.00;102539.38;2615854;36;20038;-54
2022/10/18 04:54:14;;;;;;;11.90;8.27;;;;;;;14.57;100.00;102539.13;2615071;36;20042;-53
2022/10/18 04:56:42;;;;;;;13.83;8.57;;;;;;;14.53;100.00;102540.34;2616402;36;20510;-52
2022/10/18 04:59:10;;;;;;;10.82;8.45;;;;;;;14.55;100.00;102543.81;2616365;36;20022;-51
2022/10/18 05:01:38;;;;;;;35.95;9.60;;;;;;;14.48;100.00;102548.84;2616254;31;20035;-53
2022/10/18 05:04:10;;;;;;;11.30;8.50;;;;;;;14.51;100.00;102551.28;2614572;36;20041;-53
2022/10/18 05:06:38;;;;;;;14.55;9.35;;;;;;;14.52;100.00;102546.75;2616732;36;20037;-50
2022/10/18 05:09:07;;;;;;;10.63;8.70;;;;;;;14.53;100.00;102545.75;2615274;36;20036;-52
2022/10/18 05:11:35;;;;;;;17.03;8.97;;;;;;;14.49;100.00;102549.72;2616479;36;20571;-52
2022/10/18 05:14:03;;;;;;;12.40;8.30;;;;;;;14.51;100.00;102555.88;2616679;36;20035;-54
2022/10/18 05:16:32;;;;;;;20.00;8.80;;;;;;;14.51;100.00;102551.28;2615286;36;20042;-52
2022/10/18 05:19:00;;;;;;;37.60;9.98;;;;;;;14.51;100.00;102550.44;2616262;36;20412;-51
2022/10/18 05:21:31;;;;;;;14.00;8.88;;;;;;;14.54;100.00;102544.78;2616090;31;20086;-51
2022/10/18 05:24:00;;;;;;;20.85;9.82;;;;;;;14.55;100.00;102562.78;2617029;36;20053;-52
2022/10/18 05:26:28;;;;;;;24.77;9.48;;;;;;;14.58;100.00;102567.09;2616481;36;20030;-53
2022/10/18 05:28:56;;;;;;;31.07;9.17;;;;;;;14.53;100.00;102570.13;2616438;36;20030;-55
2022/10/18 05:31:25;;;;;;;20.63;9.63;;;;;;;14.45;100.00;102572.59;2614746;31;20041;-52
2022/10/18 05:33:53;;;;;;;26.70;10.23;;;;;;;14.44;100.00;102584.41;2614400;36;20038;-52
2022/10/18 05:36:21;;;;;;;28.23;9.20;;;;;;;14.42;100.00;102594.53;2614771;36;20038;-50
2022/10/18 05:38:52;;;;;;;35.07;9.10;;;;;;;14.23;100.00;102598.63;2614717;36;20038;-51
2022/10/18 05:41:21;;;;;;;46.10;10.00;;;;;;;14.13;100.00;102593.06;2614819;36;20038;-53
2022/10/18 05:43:49;;;;;;;37.22;9.63;;;;;;;14.08;100.00;102600.66;2615716;31;20054;-54
2022/10/18 05:46:18;;;;;;;19.27;9.10;;;;;;;14.24;100.00;102607.63;2615152;31;20479;-53
2022/10/18 05:48:50;;;;;;;16.00;9.03;;;;;;;14.28;100.00;102601.88;2615074;31;20489;-49
2022/10/18 05:51:19;;;;;;;25.63;10.15;;;;;;;14.35;100.00;102602.25;2616911;36;20034;-52
2022/10/18 05:53:47;;;;;;;19.50;8.63;;;;;;;14.35;100.00;102605.84;2616563;36;20058;-53
2022/10/18 05:56:18;;;;;;;39.00;9.48;;;;;;;14.43;100.00;102613.38;2615249;36;20311;-52
2022/10/18 05:58:51;;;;;;;12.38;8.68;;;;;;;14.43;100.00;102623.31;2616861;36;20046;-51
2022/10/18 06:01:19;;;;;;;16.73;7.90;;;;;;;14.47;100.00;102622.09;2614786;36;20027;-50
2022/10/18 06:03:48;;;;;;;34.38;7.68;;;;;;;14.44;100.00;102611.50;2615890;36;20049;-51
2022/10/18 06:06:16;;;;;;;25.87;8.30;;;;;;;14.43;100.00;102623.31;2616084;36;20035;-51
2022/10/18 06:08:45;;;;;;;54.22;8.63;;;;;;;14.22;100.00;102617.72;2616545;36;20433;-55
2022/10/18 06:11:20;;;;;;;12.45;6.85;;;;;;;14.15;100.00;102637.13;2615945;36;20030;-54
2022/10/18 06:13:49;;;;;;;14.80;8.27;;;;;;;14.29;100.00;102625.25;2617070;36;20555;-50
2022/10/18 06:16:20;;;;;;;24.35;7.47;;;;;;;14.16;100.00;102619.03;2615145;36;20029;-52
2022/10/18 06:18:50;;;;;;;25.40;6.97;;;;;;;13.97;100.00;102628.56;2616241;36;20540;-53
2022/10/18 06:21:19;;;;;;;8.95;5.82;;;;;;;14.00;100.00;102632.84;2616219;36;20027;-51
2022/10/18 06:23:49;;;;;;;;;;;;;;;14.13;100.00;102632.81;2616785;36;20034;-50
2022/10/18 06:26:21;;;;;;;30.80;9.23;;;;;;;14.06;100.00;102637.84;2616754;36;19938;-54
2022/10/18 06:28:49;;;;;;;16.80;6.88;;;;;;;13.86;100.00;102642.03;2614543;36;20045;-52
2022/10/18 06:31:19;;;;;;;11.70;6.43;;;;;;;13.89;100.00;102641.78;2614380;31;20034;-54
2022/10/18 06:33:48;;;;;;;11.82;6.55;;;;;;;13.98;100.00;102651.94;2615038;36;20311;-48
2022/10/18 06:36:18;;;;;;;7.05;6.25;;;;;;;13.97;100.00;102650.22;2612905;31;20435;-53
2022/10/18 06:38:46;;;;;;;18.25;6.95;;;;;;;13.69;100.00;102664.06;2613027;36;20050;-48
2022/10/18 06:41:15;;;;;;;13.93;6.93;;;;;;;13.60;100.00;102662.88;2613395;36;20030;-53
2022/10/18 06:43:50;;;;;;;13.43;6.97;;;;;;;13.50;100.00;102668.13;2585145;36;20035;-50
2022/10/18 06:46:18;;;;;;;10.82;6.90;;;;;;;13.61;100.00;102676.28;2611410;31;20034;-51
2022/10/18 06:48:47;;;;;;;8.38;6.53;;;;;;;13.72;100.00;102683.66;2615811;36;20026;-54
2022/10/18 06:51:17;;;;;;;9.35;6.68;;;;;;;13.75;100.00;102664.47;2616190;36;20552;-51
2022/10/18 06:53:45;;;;;;;11.57;7.60;;;;;;;13.70;100.00;102663.94;2615777;36;20034;-51
2022/10/18 06:56:14;;;;;;;8.52;6.07;;;;;;;13.57;100.00;102673.94;2613984;36;20034;-51
2022/10/18 06:58:45;;;;;;;7.57;5.93;;;;;;;13.55;100.00;102674.03;2616021;36;20039;-54
2022/10/18 07:01:16;;;;;;;8.30;6.43;;;;;;;13.49;100.00;102688.00;2614199;36;20042;-51
2022/10/18 07:03:45;;;;;;;10.00;6.70;;;;;;;13.44;100.00;102682.94;2615594;36;20026;-51
2022/10/18 07:06:16;;;;;;;10.80;6.80;;;;;;;13.30;100.00;102683.03;2614670;31;20038;-52
2022/10/18 07:08:45;;;;;;;14.07;7.57;;;;;;;13.19;100.00;102682.91;2615369;36;20423;-50
2022/10/18 07:11:17;;;;;;;28.65;7.50;;;;;;;13.17;100.00;102692.97;2614533;36;20034;-56
2022/10/18 07:13:48;;;;;;;13.02;7.10;;;;;;;13.37;100.00;102694.28;2615766;31;20038;-54
2022/10/18 07:16:18;;;;;;;12.15;6.90;;;;;;;13.49;100.00;102704.25;2615429;36;20034;-53
2022/10/18 07:18:48;;;;;;;9.85;6.43;;;;;;;13.36;100.00;102692.56;2616619;36;20029;-49
2022/10/18 07:21:19;;;;;;;10.77;7.10;;;;;;;13.31;100.00;102685.63;2615637;36;20022;-55
2022/10/18 07:23:48;;;;;;;9.32;6.60;;;;;;;13.46;100.00;102705.31;2615811;36;20022;-53
2022/10/18 07:26:19;;;;;;;9.90;6.95;;;;;;;13.45;100.00;102703.59;2616094;36;20035;-53
2022/10/18 07:28:54;;;;;;;10.57;7.50;;;;;;;13.35;100.00;102699.81;2616296;36;20035;-54
2022/10/18 07:31:23;;;;;;;12.05;7.22;;;;;;;13.30;100.00;102705.50;2616018;36;20539;-51
2022/10/18 07:33:57;;;;;;;9.93;7.28;;;;;;;13.35;100.00;102717.88;2614689;31;20038;-57
2022/10/18 07:36:25;;;;;;;10.57;7.28;;;;;;;13.44;100.00;102718.09;2615248;36;20038;-48
2022/10/18 07:38:54;;;;;;;9.70;7.63;;;;;;;13.36;100.00;102709.66;2615227;36;20042;-51
2022/10/18 07:41:23;;;;;;;12.40;8.48;;;;;;;13.38;100.00;102713.09;2615807;36;20049;-49
2022/10/18 07:43:55;;;;;;;10.10;7.82;;;;;;;13.51;100.00;102726.63;2614131;36;20565;-50
2022/10/18 07:46:24;;;;;;;10.60;7.85;;;;;;;13.52;100.00;102722.09;2615310;31;20034;-50
2022/10/18 07:48:52;;;;;;;12.10;8.63;;;;;;;13.57;100.00;102728.03;2615668;36;20030;-50
2022/10/18 07:51:23;;;;;;;13.40;8.40;;;;;;;13.66;100.00;102733.66;2615990;36;20065;-53
2022/10/18 07:53:52;;;;;;;13.82;7.80;;;;;;;13.73;100.00;102733.22;2615792;36;20030;-53
2022/10/18 07:56:22;;;;;;;11.63;7.97;;;;;;;13.83;100.00;102728.88;2615558;36;20023;-53
2022/10/18 07:58:54;;;;;;;11.32;7.32;;;;;;;13.78;100.00;102726.50;2616907;36;20412;-49
2022/10/18 08:01:25;;;;;;;14.23;9.77;;;;;;;13.79;100.00;102730.06;2615288;36;20038;-53
2022/10/18 08:03:54;;;;;;;13.73;8.88;;;;;;;13.93;100.00;102743.47;2614458;36;20034;-54
2022/10/18 08:06:24;;;;;;;12.35;7.93;;;;;;;14.07;100.00;102741.56;2615110;36;20555;-54
2022/10/18 08:08:52;;;;;;;16.23;8.07;;;;;;;14.23;100.00;102747.59;2603019;36;20463;-49
2022/10/18 08:11:22;;;;;;;12.93;7.60;;;;;;;14.24;100.00;102733.06;2612482;36;20061;-56
2022/10/18 08:13:54;;;;;;;8.82;7.10;;;;;;;14.37;100.00;102733.88;2613076;36;20547;-53
2022/10/18 08:16:24;;;;;;;10.38;6.90;;;;;;;14.42;100.00;102736.25;2614920;36;20585;-51
2022/10/18 08:18:53;;;;;;;10.43;7.03;;;;;;;14.50;100.00;102744.66;2616691;31;20424;-53
2022/10/18 08:21:23;;;;;;;13.65;8.25;;;;;;;14.59;100.00;102740.41;2615944;36;20023;-54
2022/10/18 08:23:52;;;;;;;14.70;6.45;;;;;;;14.57;100.00;102747.75;2615312;36;20037;-54
2022/10/18 08:26:22;;;;;;;14.25;6.88;;;;;;;14.67;100.00;102746.13;2615804;36;20162;-54
2022/10/18 08:28:54;;;;;;;16.48;7.18;;;;;;;14.77;100.00;102738.16;2615891;36;20038;-50
2022/10/18 08:31:22;;;;;;;15.52;7.60;;;;;;;14.96;100.00;102732.19;2615802;36;20546;-51
2022/10/18 08:33:50;;;;;;;8.80;6.18;;;;;;;15.13;100.00;102735.41;2614411;36;20023;-54
2022/10/18 08:36:19;;;;;;;10.45;6.90;;;;;;;15.15;100.00;102734.31;2633841;36;20032;-56
2022/10/18 08:38:48;;;;;;;12.95;6.43;;;;;;;15.21;100.00;102727.56;2614364;36;20061;-53
2022/10/18 08:41:33;;;;;;;8.35;6.15;;;;;;;15.15;100.00;102733.44;2615431;36;20034;-53
2022/10/18 08:44:14;;;;;;;16.70;6.57;;;;;;;15.16;100.00;102735.19;2616173;36;20134;-51
2022/10/18 08:46:46;;;;;;;8.98;5.40;;;;;;;15.28;100.00;102739.63;2616036;31;20568;-51
2022/10/18 08:49:27;;;;;;;8.38;5.38;;;;;;;15.26;100.00;102749.75;2613921;36;20039;-53
2022/10/18 08:52:00;;;;;;;8.38;5.25;;;;;;;15.17;100.00;102747.75;2616325;36;20409;-52
2022/10/18 08:54:36;;;;;;;9.15;5.13;;;;;;;15.33;100.00;102742.00;2614370;31;20515;-54
2022/10/18 08:57:09;;;;;;;7.57;5.40;;;;;;;15.42;100.00;102758.41;2615568;36;20022;-53
2022/10/18 08:59:45;;;;;;;10.88;5.05;;;;;;;15.41;100.00;102748.56;2614013;36;20066;-52
2022/10/18 09:02:21;;;;;;;7.50;4.82;;;;;;;15.51;100.00;102745.09;2613350;36;20138;-53
2022/10/18 09:04:56;;;;;;;7.60;5.05;;;;;;;15.62;100.00;102758.69;2613224;31;20037;-55
2022/10/18 09:07:46;;;;;;;11.23;5.47;;;;;;;15.74;100.00;102759.56;2614855;36;20042;-54
2022/10/18 09:10:24;;;;;;;8.60;4.53;;;;;;;15.77;100.00;102760.16;2615202;36;20031;-53
2022/10/18 09:13:06;;;;;;;12.20;4.80;;;;;;;15.92;100.00;102759.94;2616003;36;20065;-51
2022/10/18 09:15:45;;;;;;;8.48;4.38;;;;;;;15.87;100.00;102757.59;2613662;36;20034;-52
2022/10/18 09:18:30;;;;;;;7.85;3.83;;;;;;;15.91;100.00;102760.91;2615485;36;20435;-54
2022/10/18 09:21:00;;;;;;;10.95;4.70;;;;;;;15.97;100.00;102757.69;2615580;36;20038;-55
2022/10/18 09:23:42;;;;;;;6.00;3.75;;;;;;;15.90;100.00;102756.47;2613918;36;20038;-54
2022/10/18 09:26:17;;;;;;;8.65;3.35;;;;;;;16.02;100.00;102762.75;2613358;36;20562;-53
2022/10/18 09:28:57;;;;;;;6.90;3.15;;;;;;;15.84;100.00;102760.56;2614747;31;20049;-50
2022/10/18 09:31:42;;;;;;;10.05;3.58;;;;;;;15.96;100.00;102760.53;2613624;36;20069;-52
2022/10/18 09:34:15;;;;;;;9.48;3.45;;;;;;;15.93;100.00;102762.53;2613553;36;20050;-55
2022/10/18 09:36:46;;;;;;;8.68;3.65;;;;;;;16.06;100.00;102769.66;2615754;36;20447;-53
2022/10/18 09:39:18;;;;;;;5.45;2.65;;;;;;;16.20;100.00;102773.97;2614901;36;20035;-52
2022/10/18 09:41:52;;;;;;;9.75;3.13;;;;;;;16.25;100.00;102780.75;2614654;36;20022;-52
2022/10/18 09:44:25;;;;;;;5.78;2.55;;;;;;;16.36;100.00;102768.16;2613884;36;20038;-56
2022/10/18 09:47:00;;;;;;;8.68;2.78;;;;;;;16.39;100.00;102774.16;2615211;36;20045;-50
2022/10/18 09:49:34;;;;;;;12.57;2.67;;;;;;;16.32;100.00;102781.09;2615883;36;20038;-51
2022/10/18 09:52:08;;;;;;;4.65;1.90;;;;;;;16.32;100.00;102775.66;2616858;36;21100;-57
2022/10/18 09:54:43;;;;;;;8.40;1.63;;;;;;;16.40;100.00;102770.47;2616417;36;20026;-53
2022/10/18 09:57:15;;;;;;;3.20;1.42;;;;;;;16.44;100.00;102781.94;2616066;36;20038;-52
2022/10/18 09:59:48;;;;;;;11.45;2.33;;;;;;;16.51;100.00;102788.59;2613737;36;20053;-51
2022/10/18 10:02:22;;;;;;;5.38;1.70;;;;;;;16.69;100.00;102785.31;2615114;36;20516;-52
2022/10/18 10:04:51;;;;;;;6.40;1.50;;;;;;;16.61;100.00;102775.09;2612860;36;20042;-57
2022/10/18 10:07:22;;;;;;;5.55;1.65;;;;;;;16.69;100.00;102778.03;2615080;36;20038;-57
2022/10/18 10:09:58;;;;;;;7.53;1.40;;;;;;;16.57;100.00;102796.22;2614937;36;20038;-58
2022/10/18 10:12:32;;;;;;;5.28;1.40;;;;;;;16.67;100.00;102793.63;2609334;36;20427;-51
2022/10/18 10:15:28;;;;;;;8.02;1.20;;;;;;;16.68;100.00;102798.06;2614144;36;20061;-54
2022/10/18 10:18:02;;;;;;;10.05;1.50;;;;;;;16.88;100.00;102795.53;2613500;36;20535;-51
2022/10/18 10:20:37;;;;;;;5.35;1.52;;;;;;;16.87;100.00;102791.97;2613102;36;20034;-52
2022/10/18 10:23:11;;;;;;;5.18;1.10;;;;;;;16.79;100.00;102798.00;2614161;36;20053;-54
2022/10/18 10:25:40;;;;;;;3.28;1.15;;;;;;;17.04;100.00;102797.81;2614150;31;20038;-55
2022/10/18 10:28:14;;;;;;;4.47;1.30;;;;;;;17.10;100.00;102805.47;2613845;36;20074;-54
2022/10/18 10:30:42;;;;;;;6.00;1.33;;;;;;;17.09;100.00;102804.59;2613143;36;20544;-54
2022/10/18 10:33:34;;;;;;;5.43;2.07;;;;;;;16.92;100.00;102797.03;2613522;36;20638;-55
2022/10/18 10:36:21;;;;;;;9.43;1.42;;;;;;;17.00;100.00;102802.66;2613665;36;20034;-55
2022/10/18 10:39:05;;;;;;;2.78;0.93;;;;;;;17.12;100.00;102809.78;2631501;36;20038;-52
2022/10/18 10:41:35;;;;;;;5.15;1.10;;;;;;;17.04;100.00;102808.72;2615390;36;20031;-56
2022/10/18 10:44:08;;;;;;;10.05;1.30;;;;;;;17.06;100.00;102815.72;2615836;36;20026;-51
2022/10/18 10:46:46;;;;;;;4.43;1.40;;;;;;;17.06;100.00;102799.41;2616994;36;20023;-56
2022/10/18 10:49:23;;;;;;;9.15;1.55;;;;;;;17.20;100.00;102797.38;2613812;36;20045;-55
2022/10/18 10:51:56;;;;;;;4.45;1.30;;;;;;;17.18;100.00;102805.66;2616437;36;20035;-54
2022/10/18 10:54:28;;;;;;;5.00;1.25;;;;;;;17.30;100.00;102807.31;2616273;32;20415;-52
2022/10/18 10:57:01;;;;;;;4.85;1.30;;;;;;;17.63;100.00;102805.34;2615880;36;20420;-55
2022/10/18 10:59:33;;;;;;;6.05;1.38;;;;;;;17.68;100.00;102811.28;2614233;36;20137;-57
2022/10/18 11:02:21;;;;;;;5.88;1.50;;;;;;;17.59;100.00;102806.63;2616016;36;20030;-53
2022/10/18 11:04:53;;;;;;;6.38;1.67;;;;;;;17.72;100.00;102800.97;2614502;36;20575;-54
2022/10/18 11:07:26;;;;;;;8.20;1.80;;;;;;;17.71;100.00;102798.38;2614652;31;20030;-54
2022/10/18 11:10:02;;;;;;;4.70;1.38;;;;;;;17.54;100.00;102805.31;2615754;36;20023;-58
2022/10/18 11:12:35;;;;;;;8.25;1.77;;;;;;;17.60;100.00;102802.91;2615124;36;20062;-56
2022/10/18 11:15:31;;;;;;;7.32;1.63;;;;;;;17.71;100.00;102804.72;2613830;31;20026;-56
2022/10/18 11:18:09;;;;;;;8.25;1.80;;;;;;;17.61;100.00;102799.19;2615899;31;20516;-57
2022/10/18 11:20:45;;;;;;;7.18;1.50;;;;;;;17.89;100.00;102818.53;2616049;31;20038;-53
2022/10/18 11:23:15;;;;;;;5.95;1.30;;;;;;;17.85;100.00;102823.38;2615560;36;20042;-56
2022/10/18 11:26:04;;;;;;;6.47;1.48;;;;;;;17.76;100.00;102813.31;2616183;36;20039;-54
2022/10/18 11:28:47;;;;;;;5.82;1.40;;;;;;;17.77;100.00;102811.44;2615130;36;20038;-57
2022/10/18 11:31:22;;;;;;;8.95;1.30;;;;;;;17.79;100.00;102815.75;2615028;36;20035;-56